Time,TemperatureF,DewpointF,PressureIn,WindDirection,WindDirectionDegrees,WindSpeedMPH,WindSpeedGustMPH,Humidity,HourlyPrecipIn,Conditions,Clouds,dailyrainin,SolarRadiationWatts/m^2,SoftwareType,DateUTC
2013-10-11 00:07:00,45.4,44.0,30.00,NNE,30,5.0,7.0,94,0.00,,,0.00,0,weatherlink.com 1.10,2013-10-11 07:07:00,
2013-10-11 00:22:00,45.3,44.0,30.00,NE,36,1.0,4.0,94,0.00,,,0.00,0,weatherlink.com 1.10,2013-10-11 07:22:00,
2013-10-11 00:37:00,45.0,43.0,30.00,NE,36,4.0,6.0,94,0.00,,,0.00,0,weatherlink.com 1.10,2013-10-11 07:37:00,
2013-10-11 00:52:00,44.7,43.0,30.00,NE,36,0.0,3.0,94,0.00,,,0.00,0,weatherlink.com 1.10,2013-10-11 07:52:00,
2013-10-11 01:07:00,44.6,43.0,30.00,NE,34,2.0,6.0,94,0.00,,,0.00,0,weatherlink.com 1.10,2013-10-11 08:07:00,
2013-10-11 01:23:00,44.6,43.0,30.01,NE,38,1.0,4.0,95,0.00,,,0.00,0,weatherlink.com 1.10,2013-10-11 08:23:00,
2013-10-11 01:38:00,44.7,43.0,30.01,NE,38,2.0,6.0,95,0.00,,,0.00,0,weatherlink.com 1.10,2013-10-11 08:38:00,
2013-10-11 01:53:00,44.6,43.0,30.01,NE,38,4.0,5.0,95,0.00,,,0.00,0,weatherlink.com 1.10,2013-10-11 08:53:00,
2013-10-11 02:08:00,44.2,43.0,30.02,NE,38,2.0,5.0,95,0.00,,,0.00,0,weatherlink.com 1.10,2013-10-11 09:08:00,
2013-10-11 02:23:00,43.8,43.0,30.02,NE,38,3.0,5.0,95,0.00,,,0.00,0,weatherlink.com 1.10,2013-10-11 09:23:00,
2013-10-11 02:38:00,44.3,43.0,30.02,NE,38,2.0,6.0,96,0.00,,,0.00,0,weatherlink.com 1.10,2013-10-11 09:38:00,
2013-10-11 02:53:00,44.4,43.0,30.02,NE,38,3.0,3.0,95,0.00,,,0.00,0,weatherlink.com 1.10,2013-10-11 09:53:00,
2013-10-11 03:08:00,44.6,43.0,30.02,NE,38,4.0,4.0,95,0.00,,,0.00,0,weatherlink.com 1.10,2013-10-11 10:08:00,
2013-10-11 03:23:00,44.7,43.0,30.03,NE,38,3.0,3.0,95,0.00,,,0.00,0,weatherlink.com 1.10,2013-10-11 10:23:00,
2013-10-11 03:38:00,44.8,44.0,30.03,NE,38,1.0,4.0,96,0.00,,,0.00,0,weatherlink.com 1.10,2013-10-11 10:38:00,
2013-10-11 03:53:00,45.8,45.0,30.04,NE,38,2.0,3.0,96,0.00,,,0.00,0,weatherlink.com 1.10,2013-10-11 10:53:00,
2013-10-11 04:08:00,46.4,46.0,30.04,NE,38,1.0,3.0,97,0.00,,,0.00,0,weatherlink.com 1.10,2013-10-11 11:08:00,
2013-10-11 04:23:00,46.1,45.0,30.03,NE,38,0.0,5.0,96,0.00,,,0.00,0,weatherlink.com 1.10,2013-10-11 11:23:00,
2013-10-11 04:38:00,46.5,46.0,30.04,NE,38,2.0,5.0,97,0.00,,,0.00,0,weatherlink.com 1.10,2013-10-11 11:38:00,
2013-10-11 04:53:00,46.7,46.0,30.04,NE,38,1.0,5.0,97,0.00,,,0.00,0,weatherlink.com 1.10,2013-10-11 11:53:00,
2013-10-11 05:08:00,46.6,46.0,30.04,NE,38,3.0,5.0,97,0.00,,,0.00,0,weatherlink.com 1.10,2013-10-11 12:08:00,
2013-10-11 05:23:00,46.8,46.0,30.04,NE,38,1.0,4.0,96,0.00,,,0.00,0,weatherlink.com 1.10,2013-10-11 12:23:00,
2013-10-11 05:38:00,46.9,46.0,30.05,NE,38,0.0,6.0,96,0.00,,,0.00,0,weatherlink.com 1.10,2013-10-11 12:38:00,
2013-10-11 05:53:00,46.7,46.0,30.05,NE,37,1.0,5.0,96,0.00,,,0.00,0,weatherlink.com 1.10,2013-10-11 12:53:00,
2013-10-11 06:08:00,46.6,46.0,30.05,NE,37,0.0,5.0,96,0.00,,,0.00,0,weatherlink.com 1.10,2013-10-11 13:08:00,
2013-10-11 06:23:00,46.7,46.0,30.06,NE,37,2.0,3.0,96,0.00,,,0.00,0,weatherlink.com 1.10,2013-10-11 13:23:00,
2013-10-11 06:38:00,46.2,45.0,30.06,NE,37,1.0,5.0,96,0.00,,,0.00,0,weatherlink.com 1.10,2013-10-11 13:38:00,
2013-10-11 06:53:00,45.9,45.0,30.06,NE,40,4.0,7.0,96,0.00,,,0.00,0,weatherlink.com 1.10,2013-10-11 13:53:00,
2013-10-11 07:08:00,46.1,45.0,30.07,NE,39,3.0,6.0,96,0.00,,,0.00,0,weatherlink.com 1.10,2013-10-11 14:08:00,
2013-10-11 07:23:00,46.1,45.0,30.08,NE,36,4.0,5.0,96,0.00,,,0.00,0,weatherlink.com 1.10,2013-10-11 14:23:00,
2013-10-11 07:38:00,46.0,45.0,30.07,ENE,59,8.0,8.0,96,0.00,,,0.00,9,weatherlink.com 1.10,2013-10-11 14:38:00,
2013-10-11 07:53:00,46.0,45.0,30.08,NE,34,4.0,7.0,95,0.00,,,0.00,19,weatherlink.com 1.10,2013-10-11 14:53:00,
2013-10-11 08:08:00,46.3,45.0,30.08,NNE,24,5.0,7.0,95,0.00,,,0.00,33,weatherlink.com 1.10,2013-10-11 15:08:00,
2013-10-11 08:23:00,46.7,45.0,30.09,NNE,33,3.0,8.0,95,0.00,,,0.00,56,weatherlink.com 1.10,2013-10-11 15:23:00,
2013-10-11 08:38:00,47.5,46.0,30.09,NNE,28,3.0,7.0,95,0.00,,,0.00,97,weatherlink.com 1.10,2013-10-11 15:38:00,
2013-10-11 08:53:00,47.9,46.0,30.09,NE,34,2.0,6.0,94,0.00,,,0.00,118,weatherlink.com 1.10,2013-10-11 15:53:00,
2013-10-11 09:08:00,49.1,48.0,30.09,East,86,1.0,5.0,95,0.00,,,0.00,199,weatherlink.com 1.10,2013-10-11 16:08:00,
2013-10-11 09:23:00,49.3,47.0,30.09,ESE,103,3.0,5.0,93,0.00,,,0.00,236,weatherlink.com 1.10,2013-10-11 16:23:00,
2013-10-11 09:38:00,49.3,47.0,30.09,ENE,61,0.0,5.0,92,0.00,,,0.00,186,weatherlink.com 1.10,2013-10-11 16:38:00,
2013-10-11 09:54:00,50.0,48.0,30.10,South,189,0.0,2.0,92,0.00,,,0.00,195,weatherlink.com 1.10,2013-10-11 16:54:00,
2013-10-11 10:09:00,50.5,48.0,30.11,South,189,1.0,4.0,91,0.00,,,0.00,243,weatherlink.com 1.10,2013-10-11 17:09:00,
2013-10-11 10:24:00,51.8,49.0,30.10,SSE,163,0.0,6.0,89,0.00,,,0.00,663,weatherlink.com 1.10,2013-10-11 17:24:00,
2013-10-11 10:39:00,52.8,49.0,30.10,SSW,205,3.0,8.0,86,0.00,,,0.00,561,weatherlink.com 1.10,2013-10-11 17:39:00,
2013-10-11 10:54:00,53.6,49.0,30.10,SSE,161,2.0,7.0,84,0.00,,,0.00,584,weatherlink.com 1.10,2013-10-11 17:54:00,
2013-10-11 11:09:00,54.3,49.0,30.10,SSW,192,5.0,7.0,82,0.00,,,0.00,613,weatherlink.com 1.10,2013-10-11 18:09:00,
2013-10-11 11:24:00,54.9,49.0,30.10,SSW,198,4.0,6.0,81,0.00,,,0.00,635,weatherlink.com 1.10,2013-10-11 18:24:00,
2013-10-11 11:39:00,54.9,49.0,30.09,South,188,2.0,6.0,80,0.00,,,0.00,661,weatherlink.com 1.10,2013-10-11 18:39:00,
2013-10-11 11:54:00,55.8,50.0,30.09,SSW,198,4.0,7.0,80,0.00,,,0.00,675,weatherlink.com 1.10,2013-10-11 18:54:00,
2013-10-11 12:09:00,56.4,50.0,30.09,SSW,197,2.0,7.0,79,0.00,,,0.00,635,weatherlink.com 1.10,2013-10-11 19:09:00,
2013-10-11 12:24:00,56.6,50.0,30.09,South,186,2.0,5.0,79,0.00,,,0.00,492,weatherlink.com 1.10,2013-10-11 19:24:00,
2013-10-11 12:39:00,56.9,50.0,30.09,South,186,4.0,5.0,79,0.00,,,0.00,466,weatherlink.com 1.10,2013-10-11 19:39:00,
2013-10-11 12:54:00,57.3,51.0,30.08,SSW,193,5.0,6.0,78,0.00,,,0.00,469,weatherlink.com 1.10,2013-10-11 19:54:00,
2013-10-11 13:09:00,57.6,51.0,30.08,South,182,4.0,7.0,78,0.00,,,0.00,369,weatherlink.com 1.10,2013-10-11 20:09:00,
2013-10-11 13:24:00,58.0,51.0,30.08,South,185,3.0,6.0,78,0.00,,,0.00,388,weatherlink.com 1.10,2013-10-11 20:24:00,
2013-10-11 13:39:00,58.0,51.0,30.07,SSW,198,4.0,6.0,77,0.00,,,0.00,392,weatherlink.com 1.10,2013-10-11 20:39:00,
2013-10-11 13:54:00,58.0,51.0,30.07,SSW,197,2.0,6.0,78,0.00,,,0.00,387,weatherlink.com 1.10,2013-10-11 20:54:00,
2013-10-11 14:09:00,58.7,52.0,30.07,SSE,155,4.0,6.0,77,0.00,,,0.00,462,weatherlink.com 1.10,2013-10-11 21:09:00,
2013-10-11 14:24:00,58.6,51.0,30.07,SSW,198,0.0,7.0,77,0.00,,,0.00,373,weatherlink.com 1.10,2013-10-11 21:24:00,
2013-10-11 14:39:00,56.0,50.0,30.06,WSW,246,3.0,7.0,81,0.00,,,0.00,512,weatherlink.com 1.10,2013-10-11 21:39:00,
2013-10-11 14:54:00,56.2,51.0,30.06,South,171,3.0,7.0,82,0.00,,,0.00,610,weatherlink.com 1.10,2013-10-11 21:54:00,
2013-10-11 15:09:00,55.1,50.0,30.05,NNW,340,2.0,8.0,83,0.00,,,0.00,512,weatherlink.com 1.10,2013-10-11 22:09:00,
2013-10-11 15:24:00,54.9,50.0,30.05,WNW,296,2.0,9.0,84,0.00,,,0.00,446,weatherlink.com 1.10,2013-10-11 22:24:00,
2013-10-11 15:39:00,54.0,50.0,30.05,WSW,250,4.0,7.0,85,0.00,,,0.00,392,weatherlink.com 1.10,2013-10-11 22:39:00,
2013-10-11 15:54:00,53.1,49.0,30.05,WSW,247,6.0,7.0,87,0.00,,,0.00,330,weatherlink.com 1.10,2013-10-11 22:54:00,
2013-10-11 16:09:00,52.4,49.0,30.04,WSW,250,2.0,6.0,89,0.00,,,0.00,250,weatherlink.com 1.10,2013-10-11 23:09:00,
2013-10-11 16:24:00,52.8,50.0,30.04,SSW,204,3.0,6.0,89,0.00,,,0.00,176,weatherlink.com 1.10,2013-10-11 23:24:00,
2013-10-11 16:39:00,51.9,49.0,30.05,West,277,2.0,9.0,89,0.00,,,0.00,104,weatherlink.com 1.10,2013-10-11 23:39:00,
2013-10-11 16:54:00,50.8,49.0,30.04,NNE,22,3.0,8.0,92,0.00,,,0.00,264,weatherlink.com 1.10,2013-10-11 23:54:00,
2013-10-11 17:09:00,53.4,51.0,30.02,SSW,201,1.0,6.0,90,0.00,,,0.00,241,weatherlink.com 1.10,2013-10-12 00:09:00,
2013-10-11 17:24:00,53.8,50.0,30.02,South,173,0.0,7.0,87,0.00,,,0.00,250,weatherlink.com 1.10,2013-10-12 00:24:00,
2013-10-11 17:39:00,55.1,51.0,30.01,SSE,166,1.0,5.0,85,0.00,,,0.00,183,weatherlink.com 1.10,2013-10-12 00:39:00,
2013-10-11 17:54:00,55.8,51.0,30.00,SE,140,5.0,6.0,83,0.00,,,0.00,128,weatherlink.com 1.10,2013-10-12 00:54:00,
2013-10-11 18:09:00,55.9,50.0,30.00,South,184,0.0,7.0,81,0.00,,,0.00,49,weatherlink.com 1.10,2013-10-12 01:09:00,
2013-10-11 18:24:00,55.3,50.0,29.99,SE,145,2.0,3.0,82,0.00,,,0.00,18,weatherlink.com 1.10,2013-10-12 01:24:00,
2013-10-11 18:39:00,54.3,49.0,29.99,SE,145,0.0,2.0,82,0.00,,,0.00,5,weatherlink.com 1.10,2013-10-12 01:39:00,
2013-10-11 18:54:00,52.0,48.0,30.00,WSW,242,0.0,3.0,86,0.00,,,0.00,0,weatherlink.com 1.10,2013-10-12 01:54:00,
2013-10-11 19:09:00,51.2,48.0,29.99,NNE,14,0.0,3.0,88,0.00,,,0.00,0,weatherlink.com 1.10,2013-10-12 02:09:00,
2013-10-11 19:24:00,51.7,49.0,29.99,NNE,21,0.0,4.0,89,0.00,,,0.00,0,weatherlink.com 1.10,2013-10-12 02:24:00,
2013-10-11 19:39:00,51.4,48.0,30.00,WSW,248,0.0,4.0,88,0.00,,,0.00,0,weatherlink.com 1.10,2013-10-12 02:39:00,
2013-10-11 19:54:00,51.1,47.0,30.00,NNE,25,3.0,5.0,85,0.00,,,0.00,0,weatherlink.com 1.10,2013-10-12 02:54:00,
2013-10-11 20:09:00,50.3,47.0,30.00,NNE,26,0.0,3.0,87,0.00,,,0.00,0,weatherlink.com 1.10,2013-10-12 03:09:00,
2013-10-11 20:24:00,49.4,46.0,30.00,NNE,26,1.0,3.0,89,0.00,,,0.00,0,weatherlink.com 1.10,2013-10-12 03:24:00,
2013-10-11 20:39:00,48.5,46.0,30.00,NNE,26,0.0,2.0,89,0.00,,,0.00,0,weatherlink.com 1.10,2013-10-12 03:39:00,
2013-10-11 20:54:00,47.8,45.0,30.01,NNE,26,0.0,3.0,91,0.00,,,0.00,0,weatherlink.com 1.10,2013-10-12 03:54:00,
2013-10-11 21:09:00,47.4,45.0,30.01,NNE,26,0.0,2.0,90,0.00,,,0.00,0,weatherlink.com 1.10,2013-10-12 04:09:00,
2013-10-11 21:24:00,47.2,45.0,30.01,NNE,26,1.0,3.0,92,0.00,,,0.00,0,weatherlink.com 1.10,2013-10-12 04:24:00,
2013-10-11 21:39:00,47.3,45.0,30.01,NNE,26,0.0,3.0,92,0.00,,,0.00,0,weatherlink.com 1.10,2013-10-12 04:39:00,
2013-10-11 21:54:00,49.2,47.0,30.00,NNW,334,4.0,10.0,92,0.00,,,0.00,0,weatherlink.com 1.10,2013-10-12 04:54:00,
2013-10-11 22:09:00,49.3,46.0,30.01,NW,319,0.0,4.0,89,0.00,,,0.00,0,weatherlink.com 1.10,2013-10-12 05:09:00,
2013-10-11 22:24:00,48.6,46.0,30.01,NNW,335,0.0,3.0,91,0.00,,,0.00,0,weatherlink.com 1.10,2013-10-12 05:24:00,
2013-10-11 22:39:00,49.4,47.0,30.01,NW,325,0.0,5.0,90,0.00,,,0.00,0,weatherlink.com 1.10,2013-10-12 05:39:00,
2013-10-11 22:54:00,49.4,47.0,30.00,NNE,23,2.0,6.0,90,0.00,,,0.00,0,weatherlink.com 1.10,2013-10-12 05:54:00,
2013-10-11 23:10:00,49.2,47.0,30.00,NNE,33,4.0,6.0,90,0.00,,,0.00,0,weatherlink.com 1.10,2013-10-12 06:10:00,
2013-10-11 23:25:00,48.6,46.0,30.00,North,350,3.0,6.0,91,0.00,,,0.00,0,weatherlink.com 1.10,2013-10-12 06:25:00,
2013-10-11 23:40:00,48.1,46.0,30.00,NE,40,3.0,5.0,91,0.00,,,0.00,0,weatherlink.com 1.10,2013-10-12 06:40:00,
2013-10-11 23:55:00,47.0,45.0,29.99,NE,36,5.0,6.0,91,0.00,,,0.00,0,weatherlink.com 1.10,2013-10-12 06:55:00,